Time;durP1;ratioP1;P1;durP2;ratioP2;P2;SDS_P1;SDS_P2;PMS_P1;PMS_P2;Temp;Humidity;BMP_temperature;BMP_pressure;BME280_temperature;BME280_humidity;BME280_pressure;Samples;Min_cycle;Max_cycle;Signal;HPM_P1;HPM_P2
2023/06/24 00:00:11;;;;;;;6.72;5.90;;;18.20;99.90;;;;;;5071943;28;20724;-70
2023/06/24 00:02:37;;;;;;;11.50;6.93;;;18.10;99.90;;;;;;5071907;28;20063;-70
2023/06/24 00:05:04;;;;;;;8.20;6.20;;;18.00;99.90;;;;;;5072288;28;20068;-70
2023/06/24 00:07:29;;;;;;;10.27;6.60;;;18.00;99.90;;;;;;5072184;28;20050;-70
2023/06/24 00:09:55;;;;;;;9.90;6.60;;;18.00;99.90;;;;;;5071897;28;20024;-70
2023/06/24 00:12:21;;;;;;;9.10;6.40;;;17.90;99.90;;;;;;5072370;28;20090;-70
2023/06/24 00:14:47;;;;;;;8.05;6.32;;;17.80;99.90;;;;;;5072522;28;20021;-70
2023/06/24 00:17:13;;;;;;;7.88;6.97;;;17.80;99.90;;;;;;5071403;28;20048;-70
2023/06/24 00:19:39;;;;;;;9.88;7.03;;;17.80;99.90;;;;;;5071880;28;20079;-70
2023/06/24 00:22:06;;;;;;;8.60;5.85;;;17.70;99.90;;;;;;5071752;28;20482;-71
2023/06/24 00:24:31;;;;;;;9.35;6.95;;;17.70;99.90;;;;;;5070837;28;20501;-70
2023/06/24 00:26:57;;;;;;;13.88;7.88;;;17.70;99.90;;;;;;5070916;28;20108;-70
2023/06/24 00:29:22;;;;;;;8.85;7.10;;;17.70;99.90;;;;;;5071845;28;20382;-70
2023/06/24 00:31:48;;;;;;;9.13;6.55;;;17.60;99.90;;;;;;5071520;28;20111;-70
2023/06/24 00:34:14;;;;;;;12.70;7.13;;;17.50;99.90;;;;;;5071869;28;20146;-70
2023/06/24 00:36:40;;;;;;;10.88;8.15;;;17.60;99.90;;;;;;5071938;28;20473;-71
2023/06/24 00:39:06;;;;;;;10.30;7.25;;;17.50;99.90;;;;;;5071226;28;20111;-71
2023/06/24 00:41:33;;;;;;;11.52;7.35;;;17.50;99.90;;;;;;5071670;28;20027;-71
2023/06/24 00:43:59;;;;;;;10.18;7.72;;;17.50;99.90;;;;;;5071351;28;20043;-71
2023/06/24 00:46:26;;;;;;;9.20;7.28;;;17.40;99.90;;;;;;5071307;28;20032;-71
2023/06/24 00:48:53;;;;;;;8.52;7.32;;;17.40;99.90;;;;;;5071400;28;20032;-72
2023/06/24 00:51:21;;;;;;;9.23;6.90;;;17.40;99.90;;;;;;5071534;28;20027;-71
2023/06/24 00:53:47;;;;;;;12.43;8.38;;;17.30;99.90;;;;;;5071737;28;20078;-71
2023/06/24 00:56:16;;;;;;;13.48;9.88;;;17.20;99.90;;;;;;5071621;28;20036;-71
2023/06/24 00:58:43;;;;;;;12.85;9.68;;;17.20;99.90;;;;;;5071569;28;20048;-71
2023/06/24 01:01:10;;;;;;;15.98;11.73;;;17.20;99.90;;;;;;5071065;28;20060;-71
2023/06/24 01:03:36;;;;;;;16.58;11.50;;;17.30;99.90;;;;;;5071418;28;20056;-71
2023/06/24 01:06:02;;;;;;;16.60;11.38;;;17.30;99.90;;;;;;5070727;28;20059;-71
2023/06/24 01:08:28;;;;;;;17.52;12.07;;;17.30;99.90;;;;;;5071255;28;20501;-71
2023/06/24 01:10:54;;;;;;;17.92;12.82;;;17.30;99.90;;;;;;5070825;28;20017;-71
2023/06/24 01:13:20;;;;;;;16.98;14.05;;;17.30;99.90;;;;;;5071431;28;20025;-71
2023/06/24 01:15:46;;;;;;;16.25;13.23;;;17.40;99.90;;;;;;5071013;28;20542;-71
2023/06/24 01:18:19;;;;;;;16.98;13.48;;;17.30;99.90;;;;;;5070719;28;20044;-71
2023/06/24 01:20:56;;;;;;;16.58;13.13;;;17.30;99.90;;;;;;5071252;28;20029;-71
2023/06/24 01:24:05;;;;;;;17.17;14.75;;;17.30;99.90;;;;;;5071335;28;20096;-71
2023/06/24 01:26:59;;;;;;;17.58;13.25;;;17.30;99.90;;;;;;5054062;28;20016;-71
2023/06/24 01:29:27;;;;;;;14.55;12.48;;;17.30;99.90;;;;;;5071042;28;20033;-71
2023/06/24 01:32:18;;;;;;;15.00;11.90;;;17.30;99.90;;;;;;5070952;28;20400;-71
2023/06/24 01:34:54;;;;;;;15.63;11.85;;;17.20;99.90;;;;;;5071152;28;20028;-71
2023/06/24 01:37:38;;;;;;;16.65;13.40;;;17.20;99.90;;;;;;5069542;28;20107;-71
2023/06/24 01:40:20;;;;;;;19.20;14.02;;;17.10;99.90;;;;;;5070749;28;20075;-71
2023/06/24 01:42:47;;;;;;;16.23;12.77;;;17.10;99.90;;;;;;5070799;28;20025;-71
2023/06/24 01:45:16;;;;;;;25.27;14.50;;;17.00;99.90;;;;;;5069139;28;20039;-70
2023/06/24 01:47:47;;;;;;;16.13;14.25;;;17.00;99.90;;;;;;5071048;28;20024;-70
2023/06/24 01:50:14;;;;;;;17.75;13.52;;;17.00;99.90;;;;;;5070577;28;20044;-70
2023/06/24 01:52:45;;;;;;;16.80;13.65;;;16.90;99.90;;;;;;5070649;28;20020;-70
2023/06/24 01:55:14;;;;;;;29.40;16.02;;;16.90;99.90;;;;;;5070262;28;20024;-70
2023/06/24 01:57:41;;;;;;;18.33;14.10;;;16.80;99.90;;;;;;5070947;28;20031;-70
2023/06/24 02:00:09;;;;;;;17.27;13.85;;;16.80;99.90;;;;;;5070373;28;20090;-70
2023/06/24 02:02:36;;;;;;;17.63;14.45;;;16.80;99.90;;;;;;5070676;28;20579;-70
2023/06/24 02:05:05;;;;;;;16.92;13.18;;;16.80;99.90;;;;;;5070665;28;20067;-70
2023/06/24 02:07:32;;;;;;;18.30;14.32;;;16.70;99.90;;;;;;5074416;28;20067;-70
2023/06/24 02:10:00;;;;;;;20.85;14.35;;;16.70;99.90;;;;;;5074048;28;20029;-70
2023/06/24 02:12:27;;;;;;;16.88;13.27;;;16.60;99.90;;;;;;5074625;28;20021;-70
2023/06/24 02:14:54;;;;;;;19.42;13.48;;;16.60;99.90;;;;;;5074425;28;20386;-70
2023/06/24 02:17:21;;;;;;;17.50;13.80;;;16.60;99.90;;;;;;5074461;28;20058;-70
2023/06/24 02:19:48;;;;;;;20.83;14.25;;;16.60;99.90;;;;;;5074576;28;20040;-70
2023/06/24 02:22:14;;;;;;;17.85;13.60;;;16.50;99.90;;;;;;5073291;28;20118;-70
2023/06/24 02:24:41;;;;;;;19.83;14.15;;;16.50;99.90;;;;;;5074023;28;20052;-70
2023/06/24 02:27:08;;;;;;;18.15;14.13;;;16.50;99.90;;;;;;5073947;28;20028;-71
2023/06/24 02:29:35;;;;;;;18.17;13.70;;;16.40;99.90;;;;;;5074372;28;20021;-70
2023/06/24 02:32:01;;;;;;;19.55;14.98;;;16.40;99.90;;;;;;5072842;28;20021;-71
2023/06/24 02:34:28;;;;;;;20.35;14.57;;;16.40;99.90;;;;;;5073926;28;20475;-70
2023/06/24 02:36:53;;;;;;;19.27;14.32;;;16.40;99.90;;;;;;5072229;28;20375;-70
2023/06/24 02:39:19;;;;;;;17.75;13.73;;;16.40;99.90;;;;;;5073696;28;20093;-70
2023/06/24 02:41:47;;;;;;;19.23;13.07;;;16.30;99.90;;;;;;5074002;28;20114;-70
2023/06/24 02:44:13;;;;;;;16.45;13.52;;;16.30;99.90;;;;;;5073309;28;20058;-70
2023/06/24 02:46:41;;;;;;;15.60;13.48;;;16.20;99.90;;;;;;5074328;28;20111;-70
2023/06/24 02:49:08;;;;;;;18.45;12.80;;;16.20;99.90;;;;;;5073790;28;20024;-70
2023/06/24 02:51:34;;;;;;;18.30;12.98;;;16.20;99.90;;;;;;5073741;28;20085;-70
2023/06/24 02:54:01;;;;;;;17.98;13.25;;;16.10;99.90;;;;;;5073305;28;20028;-70
2023/06/24 02:56:27;;;;;;;17.17;12.35;;;16.10;99.90;;;;;;5073856;28;20029;-70
2023/06/24 02:58:54;;;;;;;16.00;12.48;;;16.00;99.90;;;;;;5073228;28;20037;-70
2023/06/24 03:01:24;;;;;;;17.80;12.90;;;16.00;99.90;;;;;;5073569;28;20127;-70
2023/06/24 03:03:52;;;;;;;20.70;12.48;;;16.00;99.90;;;;;;5073617;28;20068;-71
2023/06/24 03:06:18;;;;;;;16.17;11.82;;;16.00;99.90;;;;;;5073320;28;20024;-70
2023/06/24 03:08:45;;;;;;;15.90;12.30;;;15.90;99.90;;;;;;5073565;28;20036;-70
2023/06/24 03:11:14;;;;;;;17.23;11.98;;;15.90;99.90;;;;;;5073101;28;20028;-70
2023/06/24 03:13:40;;;;;;;19.60;13.48;;;15.80;99.90;;;;;;5073580;28;20021;-70
2023/06/24 03:16:11;;;;;;;17.77;12.18;;;15.80;99.90;;;;;;5073027;28;20107;-70
2023/06/24 03:18:41;;;;;;;16.17;12.00;;;15.80;99.90;;;;;;5072535;28;20028;-70
2023/06/24 03:21:06;;;;;;;17.30;12.63;;;15.70;99.90;;;;;;5069446;28;20032;-70
2023/06/24 03:23:32;;;;;;;17.48;13.00;;;15.70;99.90;;;;;;5053357;28;20025;-70
2023/06/24 03:25:57;;;;;;;19.23;13.35;;;15.70;99.90;;;;;;5052899;28;20033;-70
2023/06/24 03:28:23;;;;;;;15.80;12.18;;;15.70;99.90;;;;;;5066220;28;20021;-70
2023/06/24 03:30:48;;;;;;;17.98;12.45;;;15.60;99.90;;;;;;5072614;28;20028;-70
2023/06/24 03:33:16;;;;;;;17.40;11.98;;;15.60;99.90;;;;;;5073333;28;20021;-71
2023/06/24 03:35:42;;;;;;;14.43;11.43;;;15.60;99.90;;;;;;5073126;28;20183;-70
2023/06/24 03:38:08;;;;;;;19.23;12.63;;;15.60;99.90;;;;;;5072417;28;20024;-70
2023/06/24 03:40:33;;;;;;;16.98;12.07;;;15.60;99.90;;;;;;5072970;28;20032;-70
2023/06/24 03:42:59;;;;;;;17.35;13.00;;;15.60;99.90;;;;;;5072468;28;20020;-70
2023/06/24 03:45:24;;;;;;;17.88;11.60;;;15.60;99.90;;;;;;5073146;28;20032;-70
2023/06/24 03:47:55;;;;;;;19.85;12.20;;;15.60;99.90;;;;;;5072673;28;20032;-71
2023/06/24 03:50:20;;;;;;;19.48;12.98;;;15.60;99.90;;;;;;5072511;28;20070;-70
2023/06/24 03:52:46;;;;;;;17.17;12.57;;;15.60;99.90;;;;;;5073018;28;20466;-71
2023/06/24 03:55:11;;;;;;;15.77;12.25;;;15.60;99.90;;;;;;5071883;28;20029;-71
2023/06/24 03:57:37;;;;;;;20.15;14.00;;;15.60;99.90;;;;;;5072686;28;20020;-71
2023/06/24 04:00:15;;;;;;;19.42;12.15;;;15.60;99.90;;;;;;5071914;28;20434;-71
2023/06/24 04:02:41;;;;;;;18.75;12.32;;;15.60;99.90;;;;;;5072285;28;20098;-71
2023/06/24 04:05:07;;;;;;;14.65;11.40;;;15.70;99.90;;;;;;5072058;28;20123;-71
2023/06/24 04:07:34;;;;;;;20.77;12.50;;;15.70;99.90;;;;;;5072530;28;20103;-71
2023/06/24 04:09:59;;;;;;;17.38;13.82;;;15.70;99.90;;;;;;5072039;28;20086;-71
2023/06/24 04:12:25;;;;;;;17.33;12.00;;;15.70;99.90;;;;;;5072297;28;20016;-71
2023/06/24 04:14:50;;;;;;;18.55;13.38;;;15.80;99.90;;;;;;5071751;28;20101;-71
2023/06/24 04:17:16;;;;;;;18.02;13.35;;;15.80;99.90;;;;;;5072111;28;20397;-70
2023/06/24 04:19:42;;;;;;;20.55;14.10;;;15.80;99.90;;;;;;5069267;28;20097;-71
2023/06/24 04:22:07;;;;;;;17.75;13.93;;;15.90;99.90;;;;;;5064461;28;20021;-70
2023/06/24 04:24:33;;;;;;;22.08;13.77;;;15.90;99.90;;;;;;5071993;28;20490;-70
2023/06/24 04:26:58;;;;;;;17.67;14.35;;;15.90;99.90;;;;;;5071580;28;20025;-71
2023/06/24 04:29:24;;;;;;;20.17;14.40;;;16.00;99.90;;;;;;5071555;28;20024;-71
2023/06/24 04:31:49;;;;;;;19.75;14.32;;;16.00;99.90;;;;;;5071492;28;20029;-70
2023/06/24 04:34:15;;;;;;;18.20;13.73;;;16.00;99.90;;;;;;5071676;28;20083;-71
2023/06/24 04:36:40;;;;;;;20.85;16.23;;;16.10;99.90;;;;;;5071921;28;20047;-71
2023/06/24 04:39:06;;;;;;;24.60;16.25;;;16.20;99.90;;;;;;5071196;28;20450;-71
2023/06/24 04:41:32;;;;;;;25.77;15.65;;;16.20;99.90;;;;;;5071533;28;20028;-70
2023/06/24 04:43:57;;;;;;;21.08;14.15;;;16.30;99.90;;;;;;5071525;28;20024;-70
2023/06/24 04:46:23;;;;;;;19.05;14.93;;;16.40;99.90;;;;;;5071735;28;20027;-70
2023/06/24 04:48:49;;;;;;;22.83;14.98;;;16.40;99.90;;;;;;5071095;28;20025;-70
2023/06/24 04:51:15;;;;;;;19.45;15.70;;;16.50;99.90;;;;;;5071497;28;20108;-70
2023/06/24 04:53:40;;;;;;;21.40;16.30;;;16.60;99.90;;;;;;5071661;28;20024;-70
2023/06/24 04:56:06;;;;;;;20.95;14.50;;;16.80;99.90;;;;;;5071092;28;20448;-70
2023/06/24 04:58:32;;;;;;;18.17;13.35;;;17.20;99.90;;;;;;5071528;28;20100;-70
2023/06/24 05:00:58;;;;;;;16.77;12.90;;;17.70;99.90;;;;;;5070743;28;20052;-71
2023/06/24 05:03:24;;;;;;;18.58;14.27;;;18.20;99.90;;;;;;5071362;28;20025;-70
2023/06/24 05:05:49;;;;;;;17.27;13.55;;;18.70;99.90;;;;;;5070719;28;20086;-70
2023/06/24 05:08:17;;;;;;;17.95;13.13;;;19.10;99.90;;;;;;5071217;28;20178;-70
2023/06/24 05:10:43;;;;;;;16.85;13.15;;;19.50;99.90;;;;;;5071593;28;20028;-70
2023/06/24 05:13:08;;;;;;;15.40;13.65;;;20.00;99.90;;;;;;5070727;28;20036;-70
2023/06/24 05:15:34;;;;;;;14.48;11.57;;;20.40;99.90;;;;;;5071270;28;20052;-70
2023/06/24 05:18:00;;;;;;;12.52;10.38;;;20.80;99.90;;;;;;5070457;28;20025;-70
2023/06/24 05:20:25;;;;;;;12.50;9.55;;;21.20;99.90;;;;;;5051405;28;20460;-71
2023/06/24 05:22:51;;;;;;;10.85;8.30;;;21.40;99.90;;;;;;5051275;28;20028;-70
2023/06/24 05:25:16;;;;;;;10.35;8.00;;;21.70;99.90;;;;;;5071237;28;20029;-70
2023/06/24 05:27:44;;;;;;;10.95;8.57;;;22.00;99.90;;;;;;5071357;28;20039;-71
2023/06/24 05:30:10;;;;;;;9.70;7.30;;;22.20;99.90;;;;;;5070737;28;20028;-71
2023/06/24 05:32:35;;;;;;;8.82;6.57;;;22.40;99.90;;;;;;5071673;28;20413;-70
2023/06/24 05:35:01;;;;;;;7.40;6.43;;;22.60;99.90;;;;;;5070721;28;20039;-71
2023/06/24 05:37:26;;;;;;;7.05;6.07;;;22.80;99.90;;;;;;5071102;28;20024;-71
2023/06/24 05:39:52;;;;;;;7.38;5.28;;;23.00;99.90;;;;;;5070426;28;20037;-71
2023/06/24 05:42:18;;;;;;;10.10;7.47;;;23.30;99.90;;;;;;5074980;28;20541;-71
2023/06/24 05:44:43;;;;;;;9.27;6.78;;;23.40;99.90;;;;;;5075315;28;20044;-71
2023/06/24 05:47:09;;;;;;;7.57;6.15;;;23.50;99.90;;;;;;5074662;28;20024;-71
2023/06/24 05:49:34;;;;;;;8.77;6.75;;;23.50;99.90;;;;;;5074984;28;20033;-71
2023/06/24 05:52:01;;;;;;;9.77;7.55;;;23.50;99.90;;;;;;5074559;28;20024;-71
2023/06/24 05:54:26;;;;;;;10.73;8.20;;;23.50;99.90;;;;;;5074697;28;20074;-71
2023/06/24 05:56:52;;;;;;;8.80;7.18;;;23.50;99.90;;;;;;5074405;28;20032;-71
2023/06/24 05:59:17;;;;;;;9.82;7.15;;;23.40;99.90;;;;;;5075298;28;20371;-70
2023/06/24 06:01:43;;;;;;;8.80;7.30;;;23.30;99.90;;;;;;5074776;28;20551;-71
2023/06/24 06:04:08;;;;;;;9.23;8.10;;;23.30;99.90;;;;;;5074153;28;20036;-71
2023/06/24 06:06:34;;;;;;;10.38;8.70;;;23.20;99.90;;;;;;5074711;28;20092;-70
2023/06/24 06:08:59;;;;;;;10.07;8.23;;;23.20;99.90;;;;;;5074083;28;20035;-71
2023/06/24 06:11:25;;;;;;;10.05;6.78;;;23.10;99.90;;;;;;5074430;28;20027;-71
2023/06/24 06:13:52;;;;;;;10.55;6.55;;;23.00;99.90;;;;;;5074680;28;20024;-71
2023/06/24 06:16:17;;;;;;;10.88;7.18;;;23.00;99.90;;;;;;5073551;28;20103;-71
2023/06/24 06:18:43;;;;;;;9.10;5.25;;;22.90;99.90;;;;;;5057557;28;20112;-71
2023/06/24 06:21:09;;;;;;;7.43;4.80;;;22.80;99.90;;;;;;5059576;28;20073;-70
2023/06/24 06:23:34;;;;;;;8.18;4.95;;;22.70;99.90;;;;;;5074659;28;20020;-70
2023/06/24 06:26:00;;;;;;;7.68;4.97;;;22.50;99.90;;;;;;5074202;28;20386;-71
2023/06/24 06:28:25;;;;;;;7.03;4.82;;;22.30;99.90;;;;;;5074261;28;20029;-70
2023/06/24 06:30:51;;;;;;;8.85;5.22;;;22.20;99.90;;;;;;5072773;28;20017;-70
2023/06/24 06:33:16;;;;;;;8.63;5.57;;;22.20;99.90;;;;;;5074073;28;20032;-71
2023/06/24 06:35:42;;;;;;;7.05;4.97;;;22.10;99.90;;;;;;5074362;28;20039;-71
2023/06/24 06:38:07;;;;;;;7.43;5.60;;;22.10;99.90;;;;;;5073932;28;20037;-71
2023/06/24 06:40:33;;;;;;;5.95;4.78;;;22.10;99.70;;;;;;5074188;28;20040;-71
2023/06/24 06:42:58;;;;;;;5.47;4.45;;;22.00;99.90;;;;;;5073813;28;20055;-71
2023/06/24 06:45:24;;;;;;;8.07;5.60;;;22.00;99.90;;;;;;5074158;28;20064;-70
2023/06/24 06:47:50;;;;;;;9.32;6.10;;;22.10;99.30;;;;;;5073973;28;20023;-72
2023/06/24 06:50:16;;;;;;;8.40;5.72;;;22.20;99.20;;;;;;5073894;28;20021;-70
2023/06/24 06:52:41;;;;;;;7.32;5.68;;;22.20;99.20;;;;;;5073706;28;20077;-70
2023/06/24 06:55:07;;;;;;;9.23;6.93;;;22.20;99.20;;;;;;5073397;28;20036;-70
2023/06/24 06:57:33;;;;;;;8.20;5.57;;;22.20;99.20;;;;;;5073810;28;20020;-70
2023/06/24 06:59:58;;;;;;;8.50;6.32;;;22.20;99.30;;;;;;5073231;28;20700;-71
2023/06/24 07:02:24;;;;;;;8.80;6.68;;;22.30;99.30;;;;;;5073748;28;20057;-71
2023/06/24 07:04:50;;;;;;;11.75;7.53;;;22.40;99.40;;;;;;5073242;28;20024;-71
2023/06/24 07:07:17;;;;;;;12.18;8.32;;;22.40;99.50;;;;;;5073708;28;20032;-71
2023/06/24 07:09:42;;;;;;;12.77;7.28;;;22.40;99.40;;;;;;5073461;28;20033;-71
2023/06/24 07:12:13;;;;;;;11.60;7.28;;;22.40;99.20;;;;;;5072870;28;20083;-71
2023/06/24 07:14:38;;;;;;;9.77;6.78;;;22.30;99.20;;;;;;5073626;28;20103;-71
2023/06/24 07:17:04;;;;;;;10.30;6.53;;;22.30;99.50;;;;;;5072109;28;20441;-71
2023/06/24 07:19:30;;;;;;;11.57;7.55;;;22.40;99.30;;;;;;5073118;28;20545;-71
2023/06/24 07:21:55;;;;;;;8.50;6.38;;;22.60;98.80;;;;;;5073175;28;20099;-71
2023/06/24 07:24:21;;;;;;;9.65;7.03;;;22.70;98.90;;;;;;5073322;28;20033;-71
2023/06/24 07:26:46;;;;;;;11.95;6.57;;;22.70;98.80;;;;;;5073340;28;20029;-71
2023/06/24 07:29:12;;;;;;;10.95;7.65;;;22.80;98.40;;;;;;5072552;28;20036;-71
2023/06/24 07:31:37;;;;;;;11.57;7.22;;;22.90;98.20;;;;;;5073228;28;20016;-71
2023/06/24 07:34:04;;;;;;;10.20;7.55;;;23.00;98.10;;;;;;5072825;28;20028;-71
2023/06/24 07:36:30;;;;;;;10.70;7.07;;;23.00;97.90;;;;;;5073173;28;20100;-71
2023/06/24 07:38:56;;;;;;;9.57;7.32;;;23.00;98.00;;;;;;5072699;28;20465;-71
2023/06/24 07:41:21;;;;;;;9.35;7.20;;;23.00;98.20;;;;;;5072822;28;20430;-71
2023/06/24 07:43:47;;;;;;;10.65;7.60;;;23.00;97.90;;;;;;5071730;28;20104;-71
2023/06/24 07:46:12;;;;;;;13.75;8.60;;;23.10;98.10;;;;;;5072553;28;20025;-71
2023/06/24 07:48:38;;;;;;;8.75;6.90;;;23.10;98.10;;;;;;5072702;28;20052;-71
2023/06/24 07:51:03;;;;;;;10.85;7.47;;;23.10;98.20;;;;;;5072573;28;20028;-71
2023/06/24 07:53:29;;;;;;;10.35;7.22;;;23.20;98.00;;;;;;5073002;28;20036;-71
2023/06/24 07:55:54;;;;;;;9.63;7.65;;;23.30;97.90;;;;;;5072155;28;20406;-71
2023/06/24 07:58:20;;;;;;;8.18;5.90;;;23.40;97.50;;;;;;5072508;28;20033;-71
2023/06/24 08:00:46;;;;;;;7.90;4.93;;;23.50;96.90;;;;;;5072037;28;20043;-71
2023/06/24 08:03:13;;;;;;;6.32;3.75;;;23.70;95.80;;;;;;5071305;28;20035;-71
2023/06/24 08:05:39;;;;;;;5.75;3.13;;;23.80;95.10;;;;;;5072405;28;20027;-71
2023/06/24 08:08:05;;;;;;;5.72;3.55;;;23.90;94.00;;;;;;5072141;28;20100;-71
2023/06/24 08:10:30;;;;;;;6.65;3.97;;;24.00;93.20;;;;;;5072137;28;20027;-71
2023/06/24 08:12:56;;;;;;;5.22;3.97;;;24.10;92.50;;;;;;5071661;28;20025;-71
2023/06/24 08:15:22;;;;;;;7.13;4.18;;;24.20;92.10;;;;;;5071313;28;20099;-71
2023/06/24 08:17:54;;;;;;;5.72;4.30;;;24.20;91.90;;;;;;5071851;28;20024;-71
2023/06/24 08:20:23;;;;;;;7.07;5.07;;;24.30;91.30;;;;;;5072004;28;20453;-71
2023/06/24 08:22:49;;;;;;;6.72;4.43;;;24.30;91.10;;;;;;5071845;28;20056;-71
2023/06/24 08:25:14;;;;;;;7.47;4.35;;;24.40;90.80;;;;;;5072329;28;20063;-71
2023/06/24 08:27:40;;;;;;;5.30;3.22;;;24.40;90.00;;;;;;5071904;28;20024;-71
2023/06/24 08:30:06;;;;;;;6.43;3.60;;;24.40;90.10;;;;;;5071742;28;20028;-71
2023/06/24 08:32:32;;;;;;;5.53;3.70;;;24.50;88.90;;;;;;5071610;28;20498;-71
2023/06/24 08:34:58;;;;;;;6.47;4.97;;;24.70;89.20;;;;;;5071613;28;20033;-71
2023/06/24 08:37:23;;;;;;;6.20;3.92;;;24.80;88.40;;;;;;5071257;28;20079;-71
2023/06/24 08:39:49;;;;;;;5.13;3.65;;;24.80;86.80;;;;;;5071407;28;20059;-71
2023/06/24 08:42:14;;;;;;;5.57;4.05;;;24.80;85.00;;;;;;5071677;28;20505;-71
2023/06/24 08:44:40;;;;;;;4.68;3.08;;;24.80;85.20;;;;;;5071934;28;20020;-71
2023/06/24 08:47:06;;;;;;;5.40;3.35;;;24.70;84.50;;;;;;5071169;28;20090;-71
2023/06/24 08:49:34;;;;;;;5.28;2.90;;;24.70;84.30;;;;;;5070287;28;20036;-71
2023/06/24 08:52:07;;;;;;;6.15;3.22;;;24.90;85.30;;;;;;5071521;28;20051;-71
2023/06/24 08:54:36;;;;;;;4.55;3.03;;;25.10;85.30;;;;;;5070980;28;20071;-71
2023/06/24 08:57:16;;;;;;;;;;;;;;;;;;;;;
2023/06/24 08:59:42;;;;;;;4.95;2.40;;;25.50;81.90;;;;;;5071114;28;20044;-71
2023/06/24 09:02:08;;;;;;;4.35;2.22;;;25.70;81.10;;;;;;5070944;28;20048;-71
2023/06/24 09:04:34;;;;;;;4.97;2.30;;;25.90;79.00;;;;;;5071163;28;20032;-71
2023/06/24 09:07:00;;;;;;;3.75;1.70;;;26.00;77.10;;;;;;5070406;28;20017;-71
2023/06/24 09:09:25;;;;;;;6.18;2.17;;;26.00;73.90;;;;;;5071420;28;20439;-71
2023/06/24 09:11:55;;;;;;;4.05;1.98;;;25.90;74.00;;;;;;5070809;28;20021;-71
2023/06/24 09:14:22;;;;;;;3.92;2.38;;;25.90;73.40;;;;;;5065070;28;20090;-71
2023/06/24 09:16:55;;;;;;;5.05;2.33;;;25.90;73.20;;;;;;5071229;28;20111;-71
2023/06/24 09:19:22;;;;;;;4.90;3.17;;;26.00;73.20;;;;;;5071833;28;20037;-71
2023/06/24 09:21:48;;;;;;;4.80;2.13;;;26.00;73.80;;;;;;5071110;28;20070;-71
2023/06/24 09:24:14;;;;;;;3.20;1.98;;;26.10;73.80;;;;;;5071135;28;20033;-71
2023/06/24 09:26:44;;;;;;;4.30;2.78;;;26.20;73.50;;;;;;5071079;28;20028;-71
2023/06/24 09:29:10;;;;;;;3.08;2.13;;;26.20;72.60;;;;;;5070518;28;20025;-71
2023/06/24 09:31:36;;;;;;;3.30;2.28;;;26.30;72.30;;;;;;5071304;28;20071;-71
2023/06/24 09:34:01;;;;;;;3.13;2.28;;;26.50;72.20;;;;;;5069215;28;20268;-71
2023/06/24 09:36:27;;;;;;;4.30;2.17;;;26.60;72.50;;;;;;5070799;28;20027;-71
2023/06/24 09:38:52;;;;;;;3.65;2.10;;;26.60;71.20;;;;;;5070570;28;20036;-71
2023/06/24 09:41:18;;;;;;;4.78;2.70;;;26.60;71.10;;;;;;5071438;28;20058;-71
2023/06/24 09:43:44;;;;;;;4.88;2.70;;;26.60;71.40;;;;;;5071193;28;20474;-71
2023/06/24 09:46:10;;;;;;;5.07;3.00;;;26.60;71.00;;;;;;5070566;28;20154;-71
2023/06/24 09:48:36;;;;;;;4.30;2.50;;;26.70;71.40;;;;;;5070879;28;20044;-70
2023/06/24 09:51:04;;;;;;;3.58;2.45;;;26.70;71.00;;;;;;5070639;28;20115;-71
2023/06/24 09:53:31;;;;;;;3.50;2.13;;;26.80;70.90;;;;;;5070796;28;20118;-70
2023/06/24 09:56:04;;;;;;;4.35;2.10;;;26.90;70.00;;;;;;5070338;28;20025;-70
2023/06/24 09:58:36;;;;;;;4.97;2.60;;;26.90;70.00;;;;;;5071191;28;20500;-70
2023/06/24 10:01:04;;;;;;;3.67;1.90;;;27.00;69.00;;;;;;5070198;28;20063;-71
2023/06/24 10:03:33;;;;;;;4.40;2.10;;;26.90;69.50;;;;;;5070896;28;20471;-70
2023/06/24 10:06:00;;;;;;;2.95;1.92;;;26.80;69.90;;;;;;5070276;28;20017;-70
2023/06/24 10:08:27;;;;;;;7.88;1.50;;;26.70;70.20;;;;;;5070723;28;20473;-70
2023/06/24 10:10:52;;;;;;;3.30;2.33;;;26.70;70.20;;;;;;5069881;28;20036;-71
2023/06/24 10:13:18;;;;;;;6.15;2.28;;;26.70;69.60;;;;;;5059699;28;20401;-70
2023/06/24 10:15:45;;;;;;;3.60;2.28;;;26.70;70.60;;;;;;5070986;28;20032;-70
2023/06/24 10:18:30;;;;;;;4.50;2.38;;;26.70;70.20;;;;;;5070272;28;20029;-70
2023/06/24 10:20:56;;;;;;;3.50;2.22;;;26.80;70.10;;;;;;5053485;28;20025;-70
2023/06/24 10:23:22;;;;;;;4.10;2.08;;;26.90;69.50;;;;;;5070691;28;20035;-70
2023/06/24 10:25:49;;;;;;;4.78;2.30;;;27.00;69.40;;;;;;5071031;28;20017;-71
2023/06/24 10:28:15;;;;;;;2.72;2.00;;;27.00;69.00;;;;;;5073925;28;20103;-71
2023/06/24 10:30:56;;;;;;;3.17;1.92;;;27.00;69.80;;;;;;5074390;28;20056;-71
2023/06/24 10:33:23;;;;;;;2.80;1.73;;;27.10;70.70;;;;;;5074628;28;20024;-71
2023/06/24 10:35:50;;;;;;;3.90;2.55;;;27.20;69.70;;;;;;5073643;28;20064;-71
2023/06/24 10:38:16;;;;;;;4.40;2.67;;;27.20;69.00;;;;;;5074378;28;20486;-71
2023/06/24 10:40:43;;;;;;;3.92;2.50;;;27.20;68.90;;;;;;5074112;28;20036;-71
2023/06/24 10:43:24;;;;;;;5.25;2.65;;;27.30;68.90;;;;;;5073971;28;20024;-71
2023/06/24 10:45:54;;;;;;;4.43;2.63;;;27.40;68.50;;;;;;5073892;28;20024;-71
2023/06/24 10:48:20;;;;;;;3.03;1.98;;;27.50;68.70;;;;;;5074626;28;20415;-71
2023/06/24 10:50:47;;;;;;;5.43;2.55;;;27.70;69.20;;;;;;5074408;28;20116;-71
2023/06/24 10:53:13;;;;;;;3.42;2.13;;;27.80;68.70;;;;;;5074046;28;20032;-71
2023/06/24 10:55:39;;;;;;;6.47;2.92;;;27.90;69.50;;;;;;5073713;28;20029;-71
2023/06/24 10:58:12;;;;;;;7.72;3.92;;;28.00;69.40;;;;;;5073214;28;20107;-71
2023/06/24 11:00:38;;;;;;;3.60;2.67;;;28.00;68.90;;;;;;5073873;28;20032;-72
2023/06/24 11:03:15;;;;;;;5.68;2.88;;;28.00;69.20;;;;;;5072014;28;20382;-71
2023/06/24 11:05:42;;;;;;;4.60;2.63;;;28.10;70.00;;;;;;5074085;28;20028;-71
2023/06/24 11:08:09;;;;;;;4.10;2.78;;;28.10;70.30;;;;;;5073642;28;20112;-71
2023/06/24 11:10:45;;;;;;;3.28;2.38;;;28.10;69.10;;;;;;5068088;28;20029;-71
2023/06/24 11:13:10;;;;;;;5.28;3.00;;;28.30;68.60;;;;;;5056429;28;20020;-70
2023/06/24 11:15:37;;;;;;;4.85;3.15;;;28.30;68.30;;;;;;5073044;28;20462;-70
2023/06/24 11:18:04;;;;;;;6.47;2.97;;;28.20;68.70;;;;;;5073213;28;20394;-71
2023/06/24 11:20:29;;;;;;;6.07;3.90;;;28.20;69.10;;;;;;5073461;28;20037;-71
2023/06/24 11:22:55;;;;;;;3.75;3.22;;;28.10;68.50;;;;;;5073125;28;20021;-71
2023/06/24 11:25:21;;;;;;;5.22;3.42;;;28.00;68.30;;;;;;5073504;28;20020;-71
2023/06/24 11:27:50;;;;;;;4.93;3.38;;;28.00;68.90;;;;;;5073626;28;20029;-71
2023/06/24 11:30:16;;;;;;;4.80;3.50;;;28.10;68.30;;;;;;5073103;28;20159;-71
2023/06/24 11:32:44;;;;;;;6.78;4.13;;;28.10;68.70;;;;;;5073285;28;20111;-71
2023/06/24 11:35:12;;;;;;;4.55;3.20;;;28.20;68.60;;;;;;5073202;28;20064;-71
2023/06/24 11:37:40;;;;;;;3.97;3.03;;;28.30;68.70;;;;;;5072724;28;20028;-71
2023/06/24 11:40:10;;;;;;;4.05;2.28;;;28.30;69.20;;;;;;5071722;28;20177;-71
2023/06/24 11:42:40;;;;;;;4.30;2.97;;;28.40;69.50;;;;;;5073095;28;20036;-72
2023/06/24 11:45:07;;;;;;;5.13;2.22;;;28.50;68.10;;;;;;5072733;28;20039;-71
2023/06/24 11:47:34;;;;;;;6.10;3.03;;;28.40;68.80;;;;;;5073142;28;20478;-71
2023/06/24 11:50:02;;;;;;;3.72;2.55;;;28.50;68.20;;;;;;5072484;28;20463;-71
2023/06/24 11:52:52;;;;;;;3.63;2.17;;;28.40;67.60;;;;;;5072845;28;20031;-71
2023/06/24 11:55:19;;;;;;;5.85;2.13;;;28.30;68.50;;;;;;5072149;28;20025;-71
2023/06/24 11:58:00;;;;;;;5.65;3.47;;;28.30;69.00;;;;;;5072613;28;20040;-71
2023/06/24 12:00:31;;;;;;;3.20;2.20;;;28.40;67.60;;;;;;5072839;28;20462;-71
2023/06/24 12:03:02;;;;;;;5.43;2.80;;;28.30;69.80;;;;;;5072142;28;20061;-72
2023/06/24 12:05:32;;;;;;;3.92;2.67;;;28.40;69.00;;;;;;5072741;28;20428;-71
2023/06/24 12:08:27;;;;;;;3.58;2.47;;;28.40;68.10;;;;;;5071893;28;20077;-71
2023/06/24 12:10:53;;;;;;;5.97;2.63;;;28.50;67.40;;;;;;5071089;28;20032;-71
2023/06/24 12:13:20;;;;;;;3.15;2.28;;;28.40;67.50;;;;;;5072734;28;20049;-71
2023/06/24 12:15:45;;;;;;;4.93;2.50;;;28.40;68.80;;;;;;5072569;28;20021;-71
2023/06/24 12:18:12;;;;;;;4.25;2.40;;;28.60;67.80;;;;;;5071857;28;20470;-71
2023/06/24 12:20:38;;;;;;;4.72;2.88;;;28.80;67.00;;;;;;5072291;28;20040;-71
2023/06/24 12:23:03;;;;;;;5.78;3.10;;;28.90;66.70;;;;;;5071853;28;20017;-71
2023/06/24 12:25:29;;;;;;;5.55;3.15;;;28.90;66.30;;;;;;5071537;28;20033;-71
2023/06/24 12:27:55;;;;;;;4.30;3.15;;;29.00;65.80;;;;;;5066400;28;20024;-71
2023/06/24 12:30:21;;;;;;;4.50;2.35;;;29.00;65.20;;;;;;5051681;28;20025;-71
2023/06/24 12:32:50;;;;;;;5.22;3.38;;;29.10;66.00;;;;;;5071530;28;20515;-71
2023/06/24 12:35:16;;;;;;;3.63;2.63;;;29.10;66.50;;;;;;5072061;28;20402;-71
2023/06/24 12:37:41;;;;;;;5.28;4.32;;;29.10;67.60;;;;;;5072075;28;20029;-70
2023/06/24 12:40:07;;;;;;;3.97;3.00;;;29.00;66.30;;;;;;5071839;28;20024;-71